sensor_id;sensor_type;location;lat;lon;timestamp;pressure;altitude;pressure_sealevel;temperature;humidity
6500;BME280;3283;52.330;9.772;2024-03-02T00:01:50;98856.16;;;5.71;100.00
6500;BME280;3283;52.330;9.772;2024-03-02T00:04:16;98852.56;;;5.75;100.00
6500;BME280;3283;52.330;9.772;2024-03-02T00:06:42;98853.56;;;5.71;100.00
6500;BME280;3283;52.330;9.772;2024-03-02T00:09:09;98844.03;;;5.69;100.00
6500;BME280;3283;52.330;9.772;2024-03-02T00:11:37;98856.16;;;5.71;100.00
6500;BME280;3283;52.330;9.772;2024-03-02T00:14:03;98854.53;;;5.66;100.00
6500;BME280;3283;52.330;9.772;2024-03-02T00:16:31;98857.16;;;5.66;100.00
6500;BME280;3283;52.330;9.772;2024-03-02T00:19:01;98860.56;;;5.68;100.00
6500;BME280;3283;52.330;9.772;2024-03-02T00:21:27;98857.97;;;5.68;100.00
6500;BME280;3283;52.330;9.772;2024-03-02T00:23:55;98857.09;;;5.67;100.00
6500;BME280;3283;52.330;9.772;2024-03-02T00:26:20;98857.16;;;5.66;100.00
6500;BME280;3283;52.330;9.772;2024-03-02T00:28:46;98859.75;;;5.66;100.00
6500;BME280;3283;52.330;9.772;2024-03-02T00:31:12;98862.25;;;5.70;100.00
6500;BME280;3283;52.330;9.772;2024-03-02T00:33:45;98856.19;;;5.70;100.00
6500;BME280;3283;52.330;9.772;2024-03-02T00:36:13;98862.19;;;5.73;100.00
6500;BME280;3283;52.330;9.772;2024-03-02T00:38:49;98858.78;;;5.70;100.00
6500;BME280;3283;52.330;9.772;2024-03-02T00:41:23;98864.78;;;5.75;100.00
6500;BME280;3283;52.330;9.772;2024-03-02T00:43:58;98863.88;;;5.76;100.00
6500;BME280;3283;52.330;9.772;2024-03-02T00:46:24;98859.56;;;5.75;100.00
6500;BME280;3283;52.330;9.772;2024-03-02T00:48:55;98862.25;;;5.70;100.00
6500;BME280;3283;52.330;9.772;2024-03-02T00:51:23;98863.31;;;5.62;100.00
6500;BME280;3283;52.330;9.772;2024-03-02T00:53:50;98857.19;;;5.63;100.00
6500;BME280;3283;52.330;9.772;2024-03-02T00:56:16;98869.44;;;5.61;100.00
6500;BME280;3283;52.330;9.772;2024-03-02T00:58:42;98862.59;;;5.55;100.00
6500;BME280;3283;52.330;9.772;2024-03-02T01:01:07;98867.63;;;5.64;100.00
6500;BME280;3283;52.330;9.772;2024-03-02T01:03:34;98862.38;;;5.66;100.00
6500;BME280;3283;52.330;9.772;2024-03-02T01:05:59;98872.72;;;5.69;100.00
6500;BME280;3283;52.330;9.772;2024-03-02T01:08:24;98868.50;;;5.63;100.00
6500;BME280;3283;52.330;9.772;2024-03-02T01:10:51;98866.81;;;5.61;100.00
6500;BME280;3283;52.330;9.772;2024-03-02T01:13:16;98865.88;;;5.65;100.00
6500;BME280;3283;52.330;9.772;2024-03-02T01:15:42;98867.56;;;5.67;100.00
6500;BME280;3283;52.330;9.772;2024-03-02T01:18:07;98878.06;;;5.64;100.00
6500;BME280;3283;52.330;9.772;2024-03-02T01:20:33;98875.59;;;5.57;100.00
6500;BME280;3283;52.330;9.772;2024-03-02T01:22:58;98873.88;;;5.56;100.00
6500;BME280;3283;52.330;9.772;2024-03-02T01:25:24;98880.97;;;5.50;100.00
6500;BME280;3283;52.330;9.772;2024-03-02T01:27:50;98880.09;;;5.50;100.00
6500;BME280;3283;52.330;9.772;2024-03-02T01:30:15;98879.03;;;5.59;100.00
6500;BME280;3283;52.330;9.772;2024-03-02T01:32:40;98879.09;;;5.56;100.00
6500;BME280;3283;52.330;9.772;2024-03-02T01:35:06;98878.31;;;5.52;100.00
6500;BME280;3283;52.330;9.772;2024-03-02T01:37:32;98873.09;;;5.52;100.00
6500;BME280;3283;52.330;9.772;2024-03-02T01:39:58;98872.19;;;5.53;100.00
6500;BME280;3283;52.330;9.772;2024-03-02T01:42:24;98874.00;;;5.49;100.00
6500;BME280;3283;52.330;9.772;2024-03-02T01:44:49;98872.78;;;5.67;100.00
6500;BME280;3283;52.330;9.772;2024-03-02T01:47:15;98865.75;;;5.69;100.00
6500;BME280;3283;52.330;9.772;2024-03-02T01:49:40;98868.28;;;5.74;100.00
6500;BME280;3283;52.330;9.772;2024-03-02T01:52:06;98863.38;;;5.59;100.00
6500;BME280;3283;52.330;9.772;2024-03-02T01:54:32;98867.63;;;5.63;100.00
6500;BME280;3283;52.330;9.772;2024-03-02T01:56:58;98859.06;;;5.56;100.00
6500;BME280;3283;52.330;9.772;2024-03-02T01:59:23;98853.03;;;5.54;100.00
6500;BME280;3283;52.330;9.772;2024-03-02T02:01:49;98852.69;;;5.71;100.00
6500;BME280;3283;52.330;9.772;2024-03-02T02:04:14;98844.16;;;5.63;100.00
6500;BME280;3283;52.330;9.772;2024-03-02T02:06:39;98847.59;;;5.65;100.00
6500;BME280;3283;52.330;9.772;2024-03-02T02:09:05;98847.06;;;5.49;100.00
6500;BME280;3283;52.330;9.772;2024-03-02T02:11:33;98841.66;;;5.58;100.00
6500;BME280;3283;52.330;9.772;2024-03-02T02:13:59;98840.69;;;5.62;100.00
6500;BME280;3283;52.330;9.772;2024-03-02T02:16:24;98842.38;;;5.65;100.00
6500;BME280;3283;52.330;9.772;2024-03-02T02:18:50;98828.19;;;5.78;100.00
6500;BME280;3283;52.330;9.772;2024-03-02T02:21:15;98831.53;;;5.83;100.00
6500;BME280;3283;52.330;9.772;2024-03-02T02:23:40;98837.66;;;5.82;100.00
6500;BME280;3283;52.330;9.772;2024-03-02T02:26:11;98830.94;;;5.70;100.00
6500;BME280;3283;52.330;9.772;2024-03-02T02:28:36;98833.72;;;5.64;100.00
6500;BME280;3283;52.330;9.772;2024-03-02T02:31:02;98835.78;;;5.47;100.00
6500;BME280;3283;52.330;9.772;2024-03-02T02:33:28;98832.84;;;5.62;100.00
6500;BME280;3283;52.330;9.772;2024-03-02T02:35:53;98838.94;;;5.63;100.00
6500;BME280;3283;52.330;9.772;2024-03-02T02:38:19;98832.69;;;5.30;100.00
6500;BME280;3283;52.330;9.772;2024-03-02T02:40:45;98836.69;;;5.46;100.00
6500;BME280;3283;52.330;9.772;2024-03-02T02:43:10;98839.50;;;5.35;100.00
6500;BME280;3283;52.330;9.772;2024-03-02T02:45:36;98836.31;;;5.21;100.00
6500;BME280;3283;52.330;9.772;2024-03-02T02:48:01;98836.13;;;5.32;100.00
6500;BME280;3283;52.330;9.772;2024-03-02T02:50:28;98837.63;;;5.43;100.00
6500;BME280;3283;52.330;9.772;2024-03-02T02:52:53;98835.09;;;5.39;100.00
6500;BME280;3283;52.330;9.772;2024-03-02T02:55:19;98831.72;;;5.34;100.00
6500;BME280;3283;52.330;9.772;2024-03-02T02:57:45;98843.88;;;5.36;100.00
6500;BME280;3283;52.330;9.772;2024-03-02T03:00:13;98834.28;;;5.35;100.00
6500;BME280;3283;52.330;9.772;2024-03-02T03:02:40;98829.22;;;5.29;100.00
6500;BME280;3283;52.330;9.772;2024-03-02T03:05:08;98825.03;;;5.22;100.00
6500;BME280;3283;52.330;9.772;2024-03-02T03:07:34;98820.00;;;5.11;100.00
6500;BME280;3283;52.330;9.772;2024-03-02T03:10:00;98824.81;;;5.31;100.00
6500;BME280;3283;52.330;9.772;2024-03-02T03:12:26;98823.13;;;5.30;100.00
6500;BME280;3283;52.330;9.772;2024-03-02T03:14:51;98810.41;;;5.15;100.00
6500;BME280;3283;52.330;9.772;2024-03-02T03:17:16;98811.38;;;5.09;100.00
6500;BME280;3283;52.330;9.772;2024-03-02T03:19:42;98814.75;;;5.13;100.00
6500;BME280;3283;52.330;9.772;2024-03-02T03:22:08;98819.06;;;5.15;100.00
6500;BME280;3283;52.330;9.772;2024-03-02T03:24:33;98813.03;;;5.12;100.00
6500;BME280;3283;52.330;9.772;2024-03-02T03:26:58;98822.69;;;5.07;100.00
6500;BME280;3283;52.330;9.772;2024-03-02T03:29:24;98817.13;;;4.82;100.00
6500;BME280;3283;52.330;9.772;2024-03-02T03:31:50;98809.25;;;4.83;100.00
6500;BME280;3283;52.330;9.772;2024-03-02T03:34:15;98810.94;;;4.87;100.00
6500;BME280;3283;52.330;9.772;2024-03-02T03:36:41;98801.38;;;4.88;100.00
6500;BME280;3283;52.330;9.772;2024-03-02T03:39:07;98805.94;;;4.75;100.00
6500;BME280;3283;52.330;9.772;2024-03-02T03:41:32;98809.66;;;4.62;100.00
6500;BME280;3283;52.330;9.772;2024-03-02T03:43:58;98807.16;;;4.56;100.00
6500;BME280;3283;52.330;9.772;2024-03-02T03:46:23;98818.38;;;4.61;100.00
6500;BME280;3283;52.330;9.772;2024-03-02T03:48:49;98814.97;;;4.56;100.00
6500;BME280;3283;52.330;9.772;2024-03-02T03:51:14;98812.84;;;4.78;100.00
6500;BME280;3283;52.330;9.772;2024-03-02T03:53:39;98808.84;;;4.60;100.00
6500;BME280;3283;52.330;9.772;2024-03-02T03:56:05;98807.22;;;4.53;100.00
6500;BME280;3283;52.330;9.772;2024-03-02T03:58:31;98809.94;;;4.47;100.00
6500;BME280;3283;52.330;9.772;2024-03-02T04:00:56;98808.25;;;4.43;100.00
6500;BME280;3283;52.330;9.772;2024-03-02T04:03:22;98818.75;;;4.39;100.00
6500;BME280;3283;52.330;9.772;2024-03-02T04:05:47;98809.25;;;4.37;100.00
6500;BME280;3283;52.330;9.772;2024-03-02T04:08:12;98811.72;;;4.45;100.00
6500;BME280;3283;52.330;9.772;2024-03-02T04:10:38;98814.47;;;4.34;100.00
6500;BME280;3283;52.330;9.772;2024-03-02T04:13:03;98812.59;;;4.42;100.00
6500;BME280;3283;52.330;9.772;2024-03-02T04:15:29;98806.59;;;4.38;100.00
6500;BME280;3283;52.330;9.772;2024-03-02T04:17:54;98811.88;;;4.34;100.00
6500;BME280;3283;52.330;9.772;2024-03-02T04:20:20;98814.47;;;4.34;100.00
6500;BME280;3283;52.330;9.772;2024-03-02T04:22:46;98811.91;;;4.32;100.00
6500;BME280;3283;52.330;9.772;2024-03-02T04:25:11;98813.56;;;4.36;100.00
6500;BME280;3283;52.330;9.772;2024-03-02T04:27:37;98808.38;;;4.35;100.00
6500;BME280;3283;52.330;9.772;2024-03-02T04:30:04;98811.81;;;4.38;100.00
6500;BME280;3283;52.330;9.772;2024-03-02T04:32:30;98810.19;;;4.31;100.00
6500;BME280;3283;52.330;9.772;2024-03-02T04:34:56;98816.44;;;4.21;100.00
6500;BME280;3283;52.330;9.772;2024-03-02T04:37:22;98809.22;;;4.38;100.00
6500;BME280;3283;52.330;9.772;2024-03-02T04:39:48;98821.00;;;4.07;100.00
6500;BME280;3283;52.330;9.772;2024-03-02T04:42:13;98823.56;;;4.08;100.00
6500;BME280;3283;52.330;9.772;2024-03-02T04:44:39;98828.13;;;3.96;100.00
6500;BME280;3283;52.330;9.772;2024-03-02T04:47:05;98831.22;;;4.19;100.00
6500;BME280;3283;52.330;9.772;2024-03-02T04:49:30;98827.28;;;3.95;100.00
6500;BME280;3283;52.330;9.772;2024-03-02T04:51:56;98829.44;;;4.21;100.00
6500;BME280;3283;52.330;9.772;2024-03-02T04:54:25;98832.13;;;4.17;100.00
6500;BME280;3283;52.330;9.772;2024-03-02T04:56:50;98824.47;;;4.06;100.00
6500;BME280;3283;52.330;9.772;2024-03-02T04:59:19;98827.91;;;4.09;100.00
6500;BME280;3283;52.330;9.772;2024-03-02T05:01:45;98823.25;;;4.28;100.00
6500;BME280;3283;52.330;9.772;2024-03-02T05:04:12;98826.06;;;4.16;100.00
6500;BME280;3283;52.330;9.772;2024-03-02T05:06:38;98818.00;;;4.31;100.00
6500;BME280;3283;52.330;9.772;2024-03-02T05:09:08;98825.19;;;4.17;100.00
6500;BME280;3283;52.330;9.772;2024-03-02T05:11:34;98831.28;;;4.14;100.00
6500;BME280;3283;52.330;9.772;2024-03-02T05:14:03;98828.22;;;3.90;100.00
6500;BME280;3283;52.330;9.772;2024-03-02T05:16:28;98826.50;;;3.89;100.00
6500;BME280;3283;52.330;9.772;2024-03-02T05:18:55;98826.69;;;3.73;100.00
6500;BME280;3283;52.330;9.772;2024-03-02T05:21:20;98828.38;;;3.77;100.00
6500;BME280;3283;52.330;9.772;2024-03-02T05:23:46;98825.84;;;3.74;100.00
6500;BME280;3283;52.330;9.772;2024-03-02T05:26:11;98812.00;;;3.71;100.00
6500;BME280;3283;52.330;9.772;2024-03-02T05:28:38;98817.19;;;3.74;100.00
6500;BME280;3283;52.330;9.772;2024-03-02T05:31:04;98806.69;;;3.78;100.00
6500;BME280;3283;52.330;9.772;2024-03-02T05:33:29;98814.56;;;3.72;100.00
6500;BME280;3283;52.330;9.772;2024-03-02T05:35:56;98819.56;;;3.86;100.00
6500;BME280;3283;52.330;9.772;2024-03-02T05:38:22;98815.16;;;3.91;100.00
6500;BME280;3283;52.330;9.772;2024-03-02T05:40:47;98818.59;;;3.93;100.00
6500;BME280;3283;52.330;9.772;2024-03-02T05:43:13;98826.34;;;3.98;100.00
6500;BME280;3283;52.330;9.772;2024-03-02T05:45:39;98826.50;;;3.89;100.00
6500;BME280;3283;52.330;9.772;2024-03-02T05:48:08;98823.97;;;3.82;100.00
6500;BME280;3283;52.330;9.772;2024-03-02T05:50:34;98835.28;;;3.80;100.00
6500;BME280;3283;52.330;9.772;2024-03-02T05:53:00;98839.66;;;3.78;100.00
6500;BME280;3283;52.330;9.772;2024-03-02T05:55:25;98844.09;;;3.70;100.00
6500;BME280;3283;52.330;9.772;2024-03-02T05:57:50;98844.97;;;3.70;100.00
6500;BME280;3283;52.330;9.772;2024-03-02T06:00:47;98846.72;;;3.70;100.00
6500;BME280;3283;52.330;9.772;2024-03-02T06:03:13;98845.09;;;3.61;100.00
6500;BME280;3283;52.330;9.772;2024-03-02T06:05:38;98849.38;;;3.64;100.00
6500;BME280;3283;52.330;9.772;2024-03-02T06:08:04;98846.84;;;3.59;100.00
6500;BME280;3283;52.330;9.772;2024-03-02T06:10:29;98848.56;;;3.62;100.00
6500;BME280;3283;52.330;9.772;2024-03-02T06:12:54;98845.19;;;3.53;100.00
6500;BME280;3283;52.330;9.772;2024-03-02T06:15:20;98838.19;;;3.58;100.00
6500;BME280;3283;52.330;9.772;2024-03-02T06:17:45;98845.97;;;3.60;100.00
6500;BME280;3283;52.330;9.772;2024-03-02T06:20:11;98851.19;;;3.60;100.00
6500;BME280;3283;52.330;9.772;2024-03-02T06:22:37;98850.31;;;3.58;100.00
6500;BME280;3283;52.330;9.772;2024-03-02T06:25:02;98857.09;;;3.70;100.00
6500;BME280;3283;52.330;9.772;2024-03-02T06:27:27;98866.50;;;3.81;100.00
6500;BME280;3283;52.330;9.772;2024-03-02T06:29:53;98870.78;;;3.84;100.00
6500;BME280;3283;52.330;9.772;2024-03-02T06:32:19;98866.56;;;3.75;100.00
6500;BME280;3283;52.330;9.772;2024-03-02T06:34:45;98870.78;;;3.84;100.00
6500;BME280;3283;52.330;9.772;2024-03-02T06:37:11;98865.63;;;3.82;100.00
6500;BME280;3283;52.330;9.772;2024-03-02T06:39:36;98875.94;;;3.89;100.00
6500;BME280;3283;52.330;9.772;2024-03-02T06:42:02;98882.75;;;3.97;100.00
6500;BME280;3283;52.330;9.772;2024-03-02T06:44:28;98873.38;;;3.84;100.00
6500;BME280;3283;52.330;9.772;2024-03-02T06:46:53;98878.63;;;3.82;100.00
6500;BME280;3283;52.330;9.772;2024-03-02T06:49:19;98882.63;;;4.05;100.00
6500;BME280;3283;52.330;9.772;2024-03-02T06:51:44;98876.47;;;4.12;100.00
6500;BME280;3283;52.330;9.772;2024-03-02T06:54:10;98873.59;;;4.29;100.00
6500;BME280;3283;52.330;9.772;2024-03-02T06:56:35;98878.69;;;4.35;100.00
6500;BME280;3283;52.330;9.772;2024-03-02T06:59:00;98876.41;;;4.15;100.00
6500;BME280;3283;52.330;9.772;2024-03-02T07:01:26;98881.47;;;4.26;100.00
6500;BME280;3283;52.330;9.772;2024-03-02T07:03:52;98883.09;;;4.31;100.00
6500;BME280;3283;52.330;9.772;2024-03-02T07:06:17;98889.16;;;4.33;100.00
6500;BME280;3283;52.330;9.772;2024-03-02T07:08:42;98875.78;;;4.55;100.00
6500;BME280;3283;52.330;9.772;2024-03-02T07:11:08;98870.47;;;4.61;100.00
6500;BME280;3283;52.330;9.772;2024-03-02T07:13:34;98885.38;;;4.53;100.00
6500;BME280;3283;52.330;9.772;2024-03-02T07:16:00;98885.03;;;4.73;100.00
6500;BME280;3283;52.330;9.772;2024-03-02T07:18:29;98884.41;;;4.57;100.00
6500;BME280;3283;52.330;9.772;2024-03-02T07:20:54;98883.19;;;4.78;100.00
6500;BME280;3283;52.330;9.772;2024-03-02T07:23:20;98890.88;;;4.85;100.00
6500;BME280;3283;52.330;9.772;2024-03-02T07:25:49;98887.16;;;4.99;100.00
6500;BME280;3283;52.330;9.772;2024-03-02T07:28:15;98897.06;;;4.80;100.00
6500;BME280;3283;52.330;9.772;2024-03-02T07:30:41;98899.69;;;4.78;100.00
6500;BME280;3283;52.330;9.772;2024-03-02T07:33:06;98900.06;;;5.08;100.00
6500;BME280;3283;52.330;9.772;2024-03-02T07:35:31;98896.47;;;5.12;100.00
6500;BME280;3283;52.330;9.772;2024-03-02T07:37:57;98903.34;;;5.17;100.00
6500;BME280;3283;52.330;9.772;2024-03-02T07:40:23;98899.75;;;5.23;100.00
6500;BME280;3283;52.330;9.772;2024-03-02T07:42:49;98913.72;;;5.19;100.00
6500;BME280;3283;52.330;9.772;2024-03-02T07:45:14;98923.03;;;5.32;100.00
6500;BME280;3283;52.330;9.772;2024-03-02T07:47:40;98917.19;;;5.19;100.00
6500;BME280;3283;52.330;9.772;2024-03-02T07:50:06;98917.09;;;5.26;100.00
6500;BME280;3283;52.330;9.772;2024-03-02T07:52:32;98919.69;;;5.26;100.00
6500;BME280;3283;52.330;9.772;2024-03-02T07:54:58;98925.69;;;5.31;100.00
6500;BME280;3283;52.330;9.772;2024-03-02T07:57:23;98928.16;;;5.38;100.00
6500;BME280;3283;52.330;9.772;2024-03-02T07:59:49;98930.25;;;5.64;100.00
6500;BME280;3283;52.330;9.772;2024-03-02T08:02:15;98923.28;;;5.63;100.00
6500;BME280;3283;52.330;9.772;2024-03-02T08:04:41;98921.41;;;5.71;100.00
6500;BME280;3283;52.330;9.772;2024-03-02T08:07:06;98921.25;;;5.79;100.00
6500;BME280;3283;52.330;9.772;2024-03-02T08:09:32;98914.84;;;5.95;100.00
6500;BME280;3283;52.330;9.772;2024-03-02T08:11:57;98914.59;;;6.06;100.00
6500;BME280;3283;52.330;9.772;2024-03-02T08:14:25;98922.41;;;6.08;100.00
6500;BME280;3283;52.330;9.772;2024-03-02T08:16:51;98918.63;;;6.21;100.00
6500;BME280;3283;52.330;9.772;2024-03-02T08:19:16;98925.13;;;6.40;100.00
6500;BME280;3283;52.330;9.772;2024-03-02T08:21:42;98931.97;;;6.46;100.00
6500;BME280;3283;52.330;9.772;2024-03-02T08:24:08;98936.97;;;6.56;100.00
6500;BME280;3283;52.330;9.772;2024-03-02T08:26:34;98930.38;;;6.76;100.00
6500;BME280;3283;52.330;9.772;2024-03-02T08:29:00;98934.53;;;6.84;100.00
6500;BME280;3283;52.330;9.772;2024-03-02T08:31:27;98925.25;;;7.07;100.00
6500;BME280;3283;52.330;9.772;2024-03-02T08:33:53;98925.50;;;6.98;100.00
6500;BME280;3283;52.330;9.772;2024-03-02T08:36:18;98928.72;;;7.07;100.00
6500;BME280;3283;52.330;9.772;2024-03-02T08:38:44;98933.28;;;6.99;100.00
6500;BME280;3283;52.330;9.772;2024-03-02T08:41:10;98932.84;;;7.16;100.00
6500;BME280;3283;52.330;9.772;2024-03-02T08:43:38;98934.03;;;7.37;100.00
6500;BME280;3283;52.330;9.772;2024-03-02T08:46:04;98925.06;;;7.46;100.00
6500;BME280;3283;52.330;9.772;2024-03-02T08:48:29;98939.53;;;7.59;100.00
6500;BME280;3283;52.330;9.772;2024-03-02T08:50:55;98936.53;;;7.41;100.00
6500;BME280;3283;52.330;9.772;2024-03-02T08:53:21;98934.66;;;7.78;100.00
6500;BME280;3283;52.330;9.772;2024-03-02T08:55:46;98935.09;;;7.92;100.00
6500;BME280;3283;52.330;9.772;2024-03-02T08:58:12;98936.69;;;7.97;100.00
6500;BME280;3283;52.330;9.772;2024-03-02T09:00:38;98935.09;;;7.92;100.00
6500;BME280;3283;52.330;9.772;2024-03-02T09:03:03;98935.66;;;7.72;100.00
6500;BME280;3283;52.330;9.772;2024-03-02T09:05:29;98944.31;;;8.05;100.00
6500;BME280;3283;52.330;9.772;2024-03-02T09:07:54;98936.97;;;8.16;100.00
6500;BME280;3283;52.330;9.772;2024-03-02T09:10:20;98941.78;;;8.32;100.00
6500;BME280;3283;52.330;9.772;2024-03-02T09:12:46;98943.13;;;8.15;100.00
6500;BME280;3283;52.330;9.772;2024-03-02T09:15:11;98934.38;;;7.87;100.00
6500;BME280;3283;52.330;9.772;2024-03-02T09:17:37;98935.72;;;8.30;100.00
6500;BME280;3283;52.330;9.772;2024-03-02T09:20:02;98939.06;;;8.35;100.00
6500;BME280;3283;52.330;9.772;2024-03-02T09:22:29;98939.13;;;8.33;100.00
6500;BME280;3283;52.330;9.772;2024-03-02T09:24:55;98935.25;;;8.46;100.00
6500;BME280;3283;52.330;9.772;2024-03-02T09:27:21;98933.97;;;8.58;100.00
6500;BME280;3283;52.330;9.772;2024-03-02T09:29:46;98935.13;;;8.49;100.00
6500;BME280;3283;52.330;9.772;2024-03-02T09:32:13;98942.25;;;8.72;99.03
6500;BME280;3283;52.330;9.772;2024-03-02T09:34:39;98937.72;;;8.77;98.39
6500;BME280;3283;52.330;9.772;2024-03-02T09:37:04;98941.22;;;8.50;98.76
6500;BME280;3283;52.330;9.772;2024-03-02T09:39:30;98943.03;;;8.76;97.95
6500;BME280;3283;52.330;9.772;2024-03-02T09:41:56;98939.13;;;8.88;97.04
6500;BME280;3283;52.330;9.772;2024-03-02T09:44:23;98945.59;;;8.77;95.43
6500;BME280;3283;52.330;9.772;2024-03-02T09:46:50;98942.25;;;8.99;95.65
6500;BME280;3283;52.330;9.772;2024-03-02T09:49:16;98937.09;;;9.22;94.30
6500;BME280;3283;52.330;9.772;2024-03-02T09:51:46;98940.31;;;9.30;92.70
6500;BME280;3283;52.330;9.772;2024-03-02T09:54:12;98946.50;;;9.03;91.79
6500;BME280;3283;52.330;9.772;2024-03-02T09:56:38;98947.06;;;9.13;91.89
6500;BME280;3283;52.330;9.772;2024-03-02T09:59:04;98946.84;;;9.19;90.67
6500;BME280;3283;52.330;9.772;2024-03-02T10:01:30;98952.63;;;9.28;89.96
6500;BME280;3283;52.330;9.772;2024-03-02T10:03:59;98954.16;;;9.09;90.18
6500;BME280;3283;52.330;9.772;2024-03-02T10:06:26;98956.06;;;9.30;90.13
6500;BME280;3283;52.330;9.772;2024-03-02T10:08:52;98949.22;;;9.26;89.43
6500;BME280;3283;52.330;9.772;2024-03-02T10:11:32;98953.53;;;9.02;91.10
6500;BME280;3283;52.330;9.772;2024-03-02T10:14:10;98958.53;;;9.35;90.07
6500;BME280;3283;52.330;9.772;2024-03-02T10:16:40;98959.59;;;9.29;89.07
6500;BME280;3283;52.330;9.772;2024-03-02T10:19:23;98958.31;;;9.16;88.96
6500;BME280;3283;52.330;9.772;2024-03-02T10:21:49;98953.75;;;9.21;89.72
6500;BME280;3283;52.330;9.772;2024-03-02T10:24:15;98958.19;;;9.44;87.72
6500;BME280;3283;52.330;9.772;2024-03-02T10:26:41;98959.03;;;9.46;87.41
6500;BME280;3283;52.330;9.772;2024-03-02T10:29:10;98962.16;;;9.56;85.80
6500;BME280;3283;52.330;9.772;2024-03-02T10:31:40;98960.75;;;9.71;85.58
6500;BME280;3283;52.330;9.772;2024-03-02T10:34:07;98958.56;;;9.83;83.74
6500;BME280;3283;52.330;9.772;2024-03-02T10:36:33;98960.16;;;10.11;83.25
6500;BME280;3283;52.330;9.772;2024-03-02T10:39:06;98958.03;;;9.74;82.29
6500;BME280;3283;52.330;9.772;2024-03-02T10:41:33;98956.34;;;9.73;82.61
6500;BME280;3283;52.330;9.772;2024-03-02T10:44:02;98964.84;;;9.54;82.53
6500;BME280;3283;52.330;9.772;2024-03-02T10:46:29;98960.88;;;9.43;83.48
6500;BME280;3283;52.330;9.772;2024-03-02T10:48:56;98956.22;;;9.51;83.87
6500;BME280;3283;52.330;9.772;2024-03-02T10:51:24;98954.00;;;9.88;82.58
6500;BME280;3283;52.330;9.772;2024-03-02T10:53:50;98956.06;;;10.27;78.75
6500;BME280;3283;52.330;9.772;2024-03-02T10:56:21;98958.38;;;10.35;75.53
6500;BME280;3283;52.330;9.772;2024-03-02T10:58:50;98953.44;;;10.27;76.40
6500;BME280;3283;52.330;9.772;2024-03-02T11:01:20;98960.69;;;10.66;75.99
6500;BME280;3283;52.330;9.772;2024-03-02T11:03:47;98957.19;;;10.87;72.14
6500;BME280;3283;52.330;9.772;2024-03-02T11:06:13;98952.91;;;10.85;71.55
6500;BME280;3283;52.330;9.772;2024-03-02T11:08:40;98955.97;;;10.74;70.23
6500;BME280;3283;52.330;9.772;2024-03-02T11:11:07;98953.72;;;10.65;70.49
6500;BME280;3283;52.330;9.772;2024-03-02T11:13:37;98956.84;;;10.75;70.01
6500;BME280;3283;52.330;9.772;2024-03-02T11:16:12;98956.75;;;10.76;69.81
6500;BME280;3283;52.330;9.772;2024-03-02T11:18:44;98951.75;;;10.70;69.84
6500;BME280;3283;52.330;9.772;2024-03-02T11:21:10;98955.97;;;10.52;69.44
6500;BME280;3283;52.330;9.772;2024-03-02T11:23:37;98953.41;;;10.51;69.08
6500;BME280;3283;52.330;9.772;2024-03-02T11:26:21;98951.56;;;10.53;69.32
6500;BME280;3283;52.330;9.772;2024-03-02T11:28:48;98944.06;;;10.43;69.11
6500;BME280;3283;52.330;9.772;2024-03-02T11:31:14;98953.09;;;10.36;68.91
6500;BME280;3283;52.330;9.772;2024-03-02T11:33:39;98949.97;;;10.49;69.35
6500;BME280;3283;52.330;9.772;2024-03-02T11:36:06;98939.69;;;10.42;68.44
6500;BME280;3283;52.330;9.772;2024-03-02T11:38:33;98939.34;;;10.52;67.90
6500;BME280;3283;52.330;9.772;2024-03-02T11:41:02;98943.53;;;10.56;67.02
6500;BME280;3283;52.330;9.772;2024-03-02T11:43:30;98945.00;;;10.63;67.62
6500;BME280;3283;52.330;9.772;2024-03-02T11:46:00;98949.50;;;10.61;66.15
6500;BME280;3283;52.330;9.772;2024-03-02T11:48:29;98940.19;;;10.52;66.29
6500;BME280;3283;52.330;9.772;2024-03-02T11:50:58;98948.88;;;10.54;67.09
6500;BME280;3283;52.330;9.772;2024-03-02T11:53:26;98936.78;;;10.72;66.69
6500;BME280;3283;52.330;9.772;2024-03-02T11:55:55;98942.38;;;11.07;65.79
6500;BME280;3283;52.330;9.772;2024-03-02T11:58:20;98938.28;;;11.20;64.86
6500;BME280;3283;52.330;9.772;2024-03-02T12:00:52;98930.63;;;11.54;63.69
6500;BME280;3283;52.330;9.772;2024-03-02T12:03:21;98927.84;;;11.78;62.45
6500;BME280;3283;52.330;9.772;2024-03-02T12:05:49;98927.25;;;11.71;61.74
6500;BME280;3283;52.330;9.772;2024-03-02T12:08:14;98917.19;;;11.81;62.14
6500;BME280;3283;52.330;9.772;2024-03-02T12:10:40;98917.81;;;11.26;61.49
6500;BME280;3283;52.330;9.772;2024-03-02T12:13:07;98912.78;;;11.61;62.31
6500;BME280;3283;52.330;9.772;2024-03-02T12:15:34;98925.13;;;11.79;61.54
6500;BME280;3283;52.330;9.772;2024-03-02T12:18:01;98925.91;;;11.42;61.66
6500;BME280;3283;52.330;9.772;2024-03-02T12:20:31;98923.06;;;11.26;62.31
6500;BME280;3283;52.330;9.772;2024-03-02T12:23:01;98916.41;;;10.97;62.44
6500;BME280;3283;52.330;9.772;2024-03-02T12:25:28;98917.22;;;10.78;62.90
6500;BME280;3283;52.330;9.772;2024-03-02T12:27:56;98907.59;;;10.98;62.20
6500;BME280;3283;52.330;9.772;2024-03-02T12:30:22;98903.34;;;11.16;61.80
6500;BME280;3283;52.330;9.772;2024-03-02T12:32:48;98904.25;;;11.15;62.11
6500;BME280;3283;52.330;9.772;2024-03-02T12:35:14;98896.34;;;11.36;60.76
6500;BME280;3283;52.330;9.772;2024-03-02T12:37:49;98898.59;;;11.24;60.70
6500;BME280;3283;52.330;9.772;2024-03-02T12:40:16;98899.94;;;10.72;59.36
6500;BME280;3283;52.330;9.772;2024-03-02T12:42:45;98898.34;;;10.68;59.94
6500;BME280;3283;52.330;9.772;2024-03-02T12:45:11;98891.41;;;10.87;60.13
6500;BME280;3283;52.330;9.772;2024-03-02T12:47:37;98889.50;;;11.32;60.27
6500;BME280;3283;52.330;9.772;2024-03-02T12:50:04;98886.16;;;11.28;59.47
6500;BME280;3283;52.330;9.772;2024-03-02T12:52:30;98886.66;;;11.36;59.40
6500;BME280;3283;52.330;9.772;2024-03-02T12:54:58;98879.00;;;11.50;59.47
6500;BME280;3283;52.330;9.772;2024-03-02T12:57:31;98883.88;;;11.60;58.41
6500;BME280;3283;52.330;9.772;2024-03-02T13:00:01;98881.00;;;11.45;57.66
6500;BME280;3283;52.330;9.772;2024-03-02T13:02:34;98879.22;;;11.46;57.56
6500;BME280;3283;52.330;9.772;2024-03-02T13:05:00;98883.22;;;11.54;57.47
6500;BME280;3283;52.330;9.772;2024-03-02T13:07:26;98886.47;;;11.80;57.07
6500;BME280;3283;52.330;9.772;2024-03-02T13:09:52;98886.50;;;11.60;57.00
6500;BME280;3283;52.330;9.772;2024-03-02T13:12:20;98882.25;;;11.76;56.50
6500;BME280;3283;52.330;9.772;2024-03-02T13:14:52;98889.69;;;11.87;56.71
6500;BME280;3283;52.330;9.772;2024-03-02T13:17:18;98878.06;;;11.72;55.64
6500;BME280;3283;52.330;9.772;2024-03-02T13:19:55;98880.94;;;11.86;55.54